Time,TemperatureF,DewpointF,PressureIn,WindDirection,WindDirectionDegrees,WindSpeedMPH,WindSpeedGustMPH,Humidity,HourlyPrecipIn,Conditions,Clouds,dailyrainin,SolarRadiationWatts/m^2,SoftwareType,DateUTC
2013-08-17 00:42:00,61.0,57.0,-100.00,North,358,0.0,2.0,87,0.00,,,0.00,0.000000,,2013-08-17 05:42:00,
2013-08-17 00:52:00,61.0,57.0,-100.00,North,358,0.0,2.0,87,0.00,,,0.00,0.000000,,2013-08-17 05:52:00,
2013-08-17 01:01:00,61.0,57.0,-100.00,North,358,0.0,2.0,87,0.00,,,0.00,0.000000,,2013-08-17 06:01:00,
2013-08-17 01:42:00,61.0,56.0,-100.00,WNW,300,1.0,2.0,85,0.00,,,0.00,0.000000,,2013-08-17 06:42:00,
2013-08-17 01:52:00,61.0,56.0,-100.00,WNW,300,1.0,2.0,85,0.00,,,0.00,0.000000,,2013-08-17 06:52:00,
2013-08-17 02:01:00,61.0,56.0,-100.00,WNW,300,1.0,2.0,85,0.00,,,0.00,0.000000,,2013-08-17 07:01:00,
2013-08-17 02:42:00,61.0,57.0,-100.00,WNW,284,1.0,4.0,86,0.00,,,0.00,0.000000,,2013-08-17 07:42:00,
2013-08-17 02:52:00,61.0,57.0,-100.00,WNW,284,1.0,4.0,86,0.00,,,0.00,0.000000,,2013-08-17 07:52:00,
2013-08-17 03:01:00,61.0,57.0,-100.00,WNW,284,1.0,4.0,86,0.00,,,0.00,0.000000,,2013-08-17 08:01:00,
2013-08-17 03:42:00,59.0,56.0,-100.00,West,281,0.0,3.0,89,0.00,,,-99.99,0.000000,,2013-08-17 08:42:00,
2013-08-17 03:52:00,59.0,56.0,-100.00,West,281,0.0,3.0,89,0.00,,,-99.99,0.000000,,2013-08-17 08:52:00,
2013-08-17 04:01:00,59.0,56.0,-100.00,West,281,0.0,3.0,89,0.00,,,-99.99,0.000000,,2013-08-17 09:01:00,
2013-08-17 04:02:00,60.0,57.0,-100.00,NW,307,2.0,4.0,89,0.00,,,0.00,0.000000,,2013-08-17 09:02:00,
2013-08-17 04:43:00,60.0,57.0,-100.00,NW,307,2.0,4.0,89,0.00,,,0.00,0.000000,,2013-08-17 09:43:00,
2013-08-17 04:53:00,60.0,57.0,-100.00,NW,307,2.0,4.0,89,0.00,,,0.00,0.000000,,2013-08-17 09:53:00,
2013-08-17 05:02:00,61.0,57.0,-100.00,NW,320,2.0,4.0,88,0.00,,,0.00,0.000000,,2013-08-17 10:02:00,
2013-08-17 05:42:00,61.0,57.0,-100.00,NW,320,2.0,4.0,88,0.00,,,0.00,0.000000,,2013-08-17 10:42:00,
2013-08-17 05:53:00,61.0,57.0,-100.00,NW,320,2.0,4.0,88,0.00,,,0.00,0.000000,,2013-08-17 10:53:00,
2013-08-17 06:42:00,61.0,58.0,-100.00,WNW,284,2.0,4.0,89,0.00,,,0.00,0.000000,,2013-08-17 11:42:00,
2013-08-17 06:52:00,61.0,58.0,-100.00,WNW,284,2.0,4.0,89,0.00,,,0.00,0.000000,,2013-08-17 11:52:00,
2013-08-17 07:01:00,61.0,58.0,-100.00,WNW,284,2.0,4.0,89,0.00,,,0.00,0.000000,,2013-08-17 12:01:00,
2013-08-17 07:42:00,62.0,58.0,-100.00,NW,315,2.0,5.0,87,0.00,,,0.00,4.000000,,2013-08-17 12:42:00,
2013-08-17 07:52:00,62.0,58.0,-100.00,NW,315,2.0,5.0,87,0.00,,,0.00,4.000000,,2013-08-17 12:52:00,
2013-08-17 08:01:00,62.0,58.0,-100.00,NW,315,2.0,5.0,87,0.00,,,0.00,4.000000,,2013-08-17 13:01:00,
2013-08-17 08:52:00,67.0,61.0,-100.00,North,7,2.0,5.0,80,0.00,,,0.00,102.000000,,2013-08-17 13:52:00,
2013-08-17 09:01:00,67.0,61.0,-100.00,North,7,2.0,5.0,80,0.00,,,0.00,102.000000,,2013-08-17 14:01:00,
2013-08-17 09:42:00,73.0,63.0,-100.00,NNE,28,3.0,8.0,70,0.00,,,0.00,314.000000,,2013-08-17 14:42:00,
2013-08-17 09:52:00,73.0,63.0,-100.00,NNE,28,3.0,8.0,70,0.00,,,0.00,314.000000,,2013-08-17 14:52:00,
2013-08-17 10:01:00,73.0,63.0,-100.00,NNE,28,3.0,8.0,70,0.00,,,0.00,314.000000,,2013-08-17 15:01:00,
2013-08-17 10:02:00,76.0,61.0,-100.00,NNE,28,5.0,10.0,59,0.00,,,0.00,543.000000,,2013-08-17 15:02:00,
2013-08-17 10:44:00,76.0,61.0,-100.00,NNE,28,5.0,10.0,59,0.00,,,0.00,543.000000,,2013-08-17 15:44:00,
2013-08-17 10:53:00,76.0,61.0,-100.00,NNE,28,5.0,10.0,59,0.00,,,0.00,543.000000,,2013-08-17 15:53:00,
2013-08-17 11:02:00,78.0,58.0,-100.00,NNE,12,5.0,11.0,51,0.00,,,0.00,749.000000,,2013-08-17 16:02:00,
2013-08-17 11:42:00,78.0,58.0,-100.00,NNE,12,5.0,11.0,51,0.00,,,0.00,749.000000,,2013-08-17 16:42:00,
2013-08-17 11:53:00,78.0,58.0,-100.00,NNE,12,5.0,11.0,51,0.00,,,0.00,749.000000,,2013-08-17 16:53:00,
2013-08-17 12:02:00,81.0,58.0,-100.00,NNE,24,4.0,10.0,46,0.00,,,0.00,907.000000,,2013-08-17 17:02:00,
2013-08-17 12:42:00,81.0,58.0,-100.00,NNE,24,4.0,10.0,46,0.00,,,0.00,907.000000,,2013-08-17 17:42:00,
2013-08-17 12:52:00,81.0,58.0,-100.00,NNE,24,4.0,10.0,46,0.00,,,0.00,907.000000,,2013-08-17 17:52:00,
2013-08-17 13:21:00,83.0,59.0,-100.00,NW,325,6.0,13.0,45,0.00,,,0.00,998.000000,,2013-08-17 18:21:00,
2013-08-17 13:32:00,83.0,59.0,-100.00,NW,325,6.0,13.0,45,0.00,,,0.00,998.000000,,2013-08-17 18:32:00,
2013-08-17 13:42:00,83.0,59.0,-100.00,NW,325,6.0,13.0,45,0.00,,,0.00,998.000000,,2013-08-17 18:42:00,
2013-08-17 13:52:00,83.0,59.0,-100.00,NW,325,6.0,13.0,45,0.00,,,0.00,998.000000,,2013-08-17 18:52:00,
2013-08-17 14:01:00,83.0,59.0,-100.00,NW,325,6.0,13.0,45,0.00,,,0.00,998.000000,,2013-08-17 19:01:00,
2013-08-17 14:02:00,85.0,59.0,-100.00,NNE,25,4.0,10.0,42,0.00,,,0.00,1053.000000,,2013-08-17 19:02:00,
2013-08-17 14:42:00,85.0,59.0,-100.00,NNE,25,4.0,10.0,42,0.00,,,0.00,1053.000000,,2013-08-17 19:42:00,
2013-08-17 14:52:00,85.0,59.0,-100.00,NNE,25,4.0,10.0,42,0.00,,,0.00,1053.000000,,2013-08-17 19:52:00,
2013-08-17 15:42:00,85.0,59.0,-100.00,ENE,63,4.0,10.0,42,0.00,,,0.00,674.000000,,2013-08-17 20:42:00,
2013-08-17 15:52:00,85.0,59.0,-100.00,ENE,63,4.0,10.0,42,0.00,,,0.00,674.000000,,2013-08-17 20:52:00,
2013-08-17 16:01:00,85.0,59.0,-100.00,ENE,63,4.0,10.0,42,0.00,,,0.00,674.000000,,2013-08-17 21:01:00,
2013-08-17 16:02:00,85.0,57.0,-100.00,East,90,5.0,12.0,39,0.00,,,0.00,740.000000,,2013-08-17 21:02:00,
2013-08-17 16:22:00,85.0,57.0,-100.00,East,90,5.0,12.0,39,0.00,,,0.00,740.000000,,2013-08-17 21:22:00,
2013-08-17 16:33:00,85.0,57.0,-100.00,East,90,5.0,12.0,39,0.00,,,0.00,740.000000,,2013-08-17 21:33:00,
2013-08-17 16:42:00,85.0,57.0,-100.00,East,90,5.0,12.0,39,0.00,,,0.00,740.000000,,2013-08-17 21:42:00,
2013-08-17 16:54:00,85.0,57.0,-100.00,East,90,5.0,12.0,39,0.00,,,0.00,740.000000,,2013-08-17 21:54:00,
2013-08-17 17:02:00,84.0,60.0,-100.00,ENE,64,5.0,11.0,44,0.00,,,0.00,547.000000,,2013-08-17 22:02:00,
2013-08-17 17:42:00,84.0,60.0,-100.00,ENE,64,5.0,11.0,44,0.00,,,0.00,547.000000,,2013-08-17 22:42:00,
2013-08-17 17:52:00,84.0,60.0,-100.00,ENE,64,5.0,11.0,44,0.00,,,0.00,547.000000,,2013-08-17 22:52:00,
2013-08-17 18:42:00,86.0,60.0,-100.00,East,94,2.0,6.0,42,0.00,,,0.00,421.000000,,2013-08-17 23:42:00,
2013-08-17 18:52:00,86.0,60.0,-100.00,East,94,2.0,6.0,42,0.00,,,0.00,421.000000,,2013-08-17 23:52:00,
2013-08-17 19:01:00,86.0,60.0,-100.00,East,94,2.0,6.0,42,0.00,,,0.00,421.000000,,2013-08-18 00:01:00,
2013-08-17 19:22:00,82.0,64.0,-100.00,East,83,1.0,5.0,54,0.00,,,0.00,195.000000,,2013-08-18 00:22:00,
2013-08-17 19:32:00,82.0,64.0,-100.00,East,83,1.0,5.0,54,0.00,,,0.00,195.000000,,2013-08-18 00:32:00,
2013-08-17 19:42:00,82.0,64.0,-100.00,East,83,1.0,5.0,54,0.00,,,0.00,195.000000,,2013-08-18 00:42:00,
2013-08-17 19:52:00,82.0,64.0,-100.00,East,83,1.0,5.0,54,0.00,,,0.00,195.000000,,2013-08-18 00:52:00,
2013-08-17 20:01:00,82.0,64.0,-100.00,East,83,1.0,5.0,54,0.00,,,0.00,195.000000,,2013-08-18 01:01:00,
2013-08-17 20:02:00,76.0,66.0,-100.00,ENE,59,0.0,2.0,71,0.00,,,0.00,53.000000,,2013-08-18 01:02:00,
2013-08-17 20:42:00,76.0,66.0,-100.00,ENE,59,0.0,2.0,71,0.00,,,0.00,53.000000,,2013-08-18 01:42:00,
2013-08-17 20:52:00,76.0,66.0,-100.00,ENE,59,0.0,2.0,71,0.00,,,0.00,53.000000,,2013-08-18 01:52:00,
2013-08-17 21:02:00,73.0,64.0,-100.00,North,11,1.0,2.0,74,0.00,,,0.00,1.000000,,2013-08-18 02:02:00,
2013-08-17 21:42:00,73.0,64.0,-100.00,North,11,1.0,2.0,74,0.00,,,0.00,1.000000,,2013-08-18 02:42:00,
2013-08-17 21:52:00,73.0,64.0,-100.00,North,11,1.0,2.0,74,0.00,,,0.00,1.000000,,2013-08-18 02:52:00,
2013-08-17 22:02:00,-999.0,-99.9,-100.00,West,260,0.0,0.0,-999,0.00,,,0.00,0.000000,,2013-08-18 03:02:00,
2013-08-17 22:43:00,70.0,64.0,-100.00,West,260,0.0,0.0,81,0.00,,,0.00,0.000000,,2013-08-18 03:43:00,
2013-08-17 22:53:00,70.0,64.0,-100.00,West,260,0.0,0.0,81,0.00,,,0.00,0.000000,,2013-08-18 03:53:00,
2013-08-17 23:02:00,67.0,63.0,-100.00,North,11,0.0,0.0,87,0.00,,,0.00,0.000000,,2013-08-18 04:02:00,
2013-08-17 23:42:00,67.0,63.0,-100.00,North,11,0.0,0.0,87,0.00,,,0.00,0.000000,,2013-08-18 04:42:00,
2013-08-17 23:53:00,67.0,63.0,-100.00,North,11,0.0,0.0,87,0.00,,,0.00,0.000000,,2013-08-18 04:53:00,